createdAt,value
2018-06-24T00:01:05.087Z,13.73
2018-06-24T00:03:36.097Z,13.71
2018-06-24T00:06:03.426Z,13.66
2018-06-24T00:08:30.764Z,13.58
2018-06-24T00:10:58.093Z,13.65
2018-06-24T00:13:25.678Z,13.63
2018-06-24T00:15:53.012Z,13.61
2018-06-24T00:18:20.423Z,13.57
2018-06-24T00:20:47.745Z,13.51
2018-06-24T00:23:15.059Z,13.42
2018-06-24T00:25:42.525Z,13.36
2018-06-24T00:28:09.911Z,13.34
2018-06-24T00:30:37.320Z,13.53
2018-06-24T00:33:04.655Z,13.49
2018-06-24T00:35:32.064Z,13.62
2018-06-24T00:37:59.406Z,13.54
2018-06-24T00:40:27.467Z,13.52
2018-06-24T00:42:54.883Z,13.54
2018-06-24T00:45:22.288Z,13.43
2018-06-24T00:47:49.703Z,13.45
2018-06-24T00:50:17.077Z,13.42
2018-06-24T00:52:44.480Z,13.49
2018-06-24T00:55:11.899Z,13.38
2018-06-24T00:57:39.264Z,13.32
2018-06-24T01:00:11.142Z,13.39
2018-06-24T01:02:38.905Z,13.41
2018-06-24T01:05:06.300Z,13.49
2018-06-24T01:07:33.681Z,13.41
2018-06-24T01:10:01.094Z,13.48
2018-06-24T01:12:28.645Z,13.44
2018-06-24T01:14:57.275Z,13.53
2018-06-24T01:17:24.699Z,13.54
2018-06-24T01:19:53.844Z,13.49
2018-06-24T01:22:21.226Z,13.53
2018-06-24T01:24:48.603Z,13.48
2018-06-24T01:27:15.984Z,13.54
2018-06-24T01:29:43.332Z,13.43
2018-06-24T01:32:10.707Z,13.37
2018-06-24T01:34:38.098Z,13.46
2018-06-24T01:37:05.541Z,13.52
2018-06-24T01:39:32.964Z,13.53
2018-06-24T01:42:00.341Z,13.50
2018-06-24T01:44:27.692Z,13.39
2018-06-24T01:46:55.032Z,13.39
2018-06-24T01:49:22.423Z,13.39
2018-06-24T01:51:49.823Z,12.70
2018-06-24T01:54:17.328Z,13.38
2018-06-24T01:56:44.702Z,13.37
2018-06-24T01:59:12.041Z,13.43
2018-06-24T02:01:39.374Z,13.45
2018-06-24T02:04:06.859Z,13.38
2018-06-24T02:06:34.265Z,13.37
2018-06-24T02:09:01.631Z,13.42
2018-06-24T02:11:29.015Z,13.42
2018-06-24T02:13:56.366Z,13.18
2018-06-24T02:16:23.659Z,12.82
2018-06-24T02:18:51.037Z,12.40
2018-06-24T02:21:18.306Z,12.42
2018-06-24T02:23:45.717Z,12.63
2018-06-24T02:26:13.088Z,12.76
2018-06-24T02:28:40.510Z,12.85
2018-06-24T02:31:07.951Z,12.93
2018-06-24T02:33:35.283Z,12.90
2018-06-24T02:36:02.683Z,12.91
2018-06-24T02:38:29.947Z,12.85
2018-06-24T02:40:57.318Z,12.85
2018-06-24T02:43:24.723Z,12.76
2018-06-24T02:45:52.098Z,12.84
2018-06-24T02:48:19.467Z,12.75
2018-06-24T02:50:46.910Z,12.68
2018-06-24T02:53:14.260Z,12.65
2018-06-24T02:55:41.591Z,12.62
2018-06-24T02:58:08.956Z,12.63
2018-06-24T03:00:36.428Z,12.67
2018-06-24T03:03:03.723Z,12.72
2018-06-24T03:05:31.090Z,12.73
2018-06-24T03:07:58.543Z,12.65
2018-06-24T03:10:25.796Z,12.68
2018-06-24T03:12:53.126Z,12.63
2018-06-24T03:15:20.443Z,12.50
2018-06-24T03:17:47.771Z,12.48
2018-06-24T03:20:15.084Z,12.46
2018-06-24T03:22:42.413Z,12.45
2018-06-24T03:25:09.784Z,12.48
2018-06-24T03:27:37.113Z,12.43
2018-06-24T03:30:04.587Z,12.51
2018-06-24T03:32:31.957Z,12.50
2018-06-24T03:34:59.403Z,12.31
2018-06-24T03:37:26.747Z,12.46
2018-06-24T03:39:54.304Z,12.48
2018-06-24T03:42:21.607Z,12.53
2018-06-24T03:44:48.926Z,12.51
2018-06-24T03:47:16.376Z,12.38
2018-06-24T03:49:45.090Z,12.33
2018-06-24T03:52:12.578Z,12.30
2018-06-24T03:54:39.926Z,12.26
2018-06-24T03:57:07.304Z,12.28
2018-06-24T03:59:34.674Z,12.31
2018-06-24T04:02:02.081Z,12.41
2018-06-24T04:04:29.376Z,12.50
2018-06-24T04:06:56.701Z,12.56
2018-06-24T04:09:24.090Z,12.65
2018-06-24T04:11:51.447Z,12.73
2018-06-24T04:14:18.818Z,12.72
2018-06-24T04:16:46.209Z,12.68
2018-06-24T04:19:13.554Z,12.79
2018-06-24T04:21:40.905Z,12.68
2018-06-24T04:24:08.320Z,12.73
2018-06-24T04:26:35.673Z,12.56
2018-06-24T04:29:03.068Z,12.30
2018-06-24T04:31:30.513Z,12.24
2018-06-24T04:33:57.846Z,12.42
2018-06-24T04:36:25.190Z,12.63
2018-06-24T04:38:52.528Z,12.70
2018-06-24T04:41:19.847Z,12.73
2018-06-24T04:43:47.131Z,12.74
2018-06-24T04:46:14.535Z,12.81
2018-06-24T04:48:41.965Z,12.86
2018-06-24T04:51:09.244Z,12.91
2018-06-24T04:53:36.583Z,12.97
2018-06-24T04:56:04.062Z,13.04
2018-06-24T04:58:31.505Z,12.88
2018-06-24T05:00:58.857Z,12.61
2018-06-24T05:03:26.147Z,12.63
2018-06-24T05:05:53.577Z,12.57
2018-06-24T05:08:20.956Z,12.78
2018-06-24T05:10:48.340Z,13.11
2018-06-24T05:13:15.665Z,13.24
2018-06-24T05:15:43.073Z,13.38
2018-06-24T05:18:10.466Z,13.50
2018-06-24T05:20:37.756Z,13.59
2018-06-24T05:23:05.270Z,13.60
2018-06-24T05:25:32.637Z,13.61
2018-06-24T05:27:59.907Z,13.24
2018-06-24T05:30:27.390Z,13.30
2018-06-24T05:32:54.748Z,13.38
2018-06-24T05:35:22.188Z,13.51
2018-06-24T05:37:49.504Z,13.43
2018-06-24T05:40:16.886Z,13.48
2018-06-24T05:42:44.264Z,13.53
2018-06-24T05:45:11.574Z,13.62
2018-06-24T05:47:38.942Z,13.71
2018-06-24T05:50:06.396Z,13.90
2018-06-24T05:52:33.696Z,13.95
2018-06-24T05:55:00.966Z,13.95
2018-06-24T05:57:28.355Z,13.98
2018-06-24T05:59:55.905Z,14.03
2018-06-24T06:02:23.313Z,13.91
2018-06-24T06:04:50.868Z,14.06
2018-06-24T06:07:18.423Z,14.17
2018-06-24T06:09:46.904Z,14.12
2018-06-24T06:14:48.488Z,14.41
2018-06-24T06:17:15.879Z,14.38
2018-06-24T06:19:43.246Z,14.46
2018-06-24T06:22:10.575Z,13.76
2018-06-24T06:24:37.937Z,14.58
2018-06-24T06:27:05.335Z,14.63
2018-06-24T06:29:32.730Z,14.69
2018-06-24T06:32:00.085Z,14.85
2018-06-24T06:34:27.479Z,15.20
2018-06-24T06:36:54.965Z,15.38
2018-06-24T06:39:22.375Z,15.44
2018-06-24T06:41:49.819Z,15.37
2018-06-24T06:44:17.411Z,15.53
2018-06-24T06:46:44.976Z,15.93
2018-06-24T06:49:12.479Z,16.29
2018-06-24T06:51:41.327Z,16.55
2018-06-24T06:54:08.852Z,16.53
2018-06-24T06:56:36.383Z,16.53
2018-06-24T06:59:03.891Z,16.80
2018-06-24T07:01:31.565Z,16.96
2018-06-24T07:03:59.200Z,16.81
2018-06-24T07:06:26.574Z,16.96
2018-06-24T07:08:53.990Z,17.12
2018-06-24T07:11:21.715Z,17.03
2018-06-24T07:13:50.653Z,17.34
2018-06-24T07:16:18.091Z,17.36
2018-06-24T07:18:45.508Z,17.59
2018-06-24T07:21:12.917Z,17.41
2018-06-24T07:23:40.281Z,17.16
2018-06-24T07:26:07.642Z,17.22
2018-06-24T07:28:35.034Z,17.36
2018-06-24T07:31:02.365Z,17.79
2018-06-24T07:33:29.716Z,17.85
2018-06-24T07:35:57.071Z,17.88
2018-06-24T07:38:24.986Z,17.47
2018-06-24T07:40:52.463Z,17.38
2018-06-24T07:43:19.790Z,17.81
2018-06-24T07:45:47.167Z,17.75
2018-06-24T07:48:14.563Z,17.63
2018-06-24T07:50:41.882Z,17.76
2018-06-24T07:53:09.263Z,18.05
2018-06-24T07:55:36.624Z,18.03
2018-06-24T07:58:04.019Z,18.26
2018-06-24T08:00:31.391Z,18.34
2018-06-24T08:02:58.700Z,18.60
2018-06-24T08:05:25.984Z,19.03
2018-06-24T08:07:53.331Z,19.41
2018-06-24T08:10:20.742Z,19.31
2018-06-24T08:12:48.954Z,18.61
2018-06-24T08:15:16.390Z,18.32
2018-06-24T08:17:43.808Z,18.64
2018-06-24T08:20:11.216Z,19.14
2018-06-24T08:22:38.600Z,19.25
2018-06-24T08:25:05.975Z,19.89
2018-06-24T08:27:33.374Z,20.28
2018-06-24T08:30:00.827Z,20.29
2018-06-24T08:32:28.170Z,20.95
2018-06-24T08:34:55.548Z,20.80
2018-06-24T08:37:22.897Z,20.61
2018-06-24T08:39:50.475Z,20.99
2018-06-24T08:42:17.888Z,21.62
2018-06-24T08:44:45.327Z,22.22
2018-06-24T08:47:12.777Z,22.25
2018-06-24T08:49:40.214Z,21.99
2018-06-24T08:52:07.623Z,21.92
2018-06-24T08:54:34.999Z,22.04
2018-06-24T08:57:02.351Z,22.16
2018-06-24T08:59:36.235Z,22.32
2018-06-24T09:02:03.582Z,21.88
2018-06-24T09:04:31.324Z,21.87
2018-06-24T09:06:59.248Z,21.96
2018-06-24T09:09:26.610Z,22.04
2018-06-24T09:11:53.956Z,22.01
2018-06-24T09:14:21.419Z,21.91
2018-06-24T09:17:40.813Z,21.23
2018-06-24T09:20:08.282Z,21.33
2018-06-24T09:22:35.621Z,21.36
2018-06-24T09:25:03.098Z,21.42
2018-06-24T09:27:30.480Z,21.49
2018-06-24T09:29:57.818Z,21.35
2018-06-24T09:32:25.178Z,21.25
2018-06-24T09:34:52.619Z,21.41
2018-06-24T09:37:20.179Z,21.58
2018-06-24T09:39:47.600Z,21.90
2018-06-24T09:42:14.961Z,22.08
2018-06-24T09:44:42.275Z,22.33
2018-06-24T09:47:09.703Z,22.64
2018-06-24T09:49:42.650Z,22.75
2018-06-24T09:52:11.920Z,22.58
2018-06-24T09:54:41.623Z,22.39
2018-06-24T09:57:09.009Z,22.57
2018-06-24T09:59:36.483Z,22.66
2018-06-24T10:02:03.873Z,22.72
2018-06-24T10:04:31.344Z,22.84
2018-06-24T10:06:58.750Z,22.77
2018-06-24T10:09:26.432Z,22.07
2018-06-24T10:11:53.749Z,21.65
2018-06-24T10:14:21.053Z,21.61
2018-06-24T10:16:48.287Z,20.95
2018-06-24T10:19:15.600Z,21.70
2018-06-24T10:21:43.571Z,22.14
2018-06-24T10:24:10.886Z,22.57
2018-06-24T10:26:38.263Z,22.75
2018-06-24T10:29:05.986Z,22.72
2018-06-24T10:31:33.386Z,22.98
2018-06-24T10:34:00.753Z,23.24
2018-06-24T10:36:28.032Z,23.14
2018-06-24T10:38:55.499Z,22.01
2018-06-24T10:41:22.969Z,22.08
2018-06-24T10:43:50.232Z,22.54
2018-06-24T10:46:17.601Z,22.22
2018-06-24T10:48:44.923Z,22.65
2018-06-24T10:51:12.141Z,23.03
2018-06-24T10:53:39.407Z,23.03
2018-06-24T10:56:06.738Z,22.97
2018-06-24T10:58:34.046Z,23.36
2018-06-24T11:01:12.868Z,23.80
2018-06-24T11:03:46.923Z,23.53
2018-06-24T11:06:19.522Z,23.08
2018-06-24T11:08:46.991Z,22.21
2018-06-24T11:11:14.380Z,22.13
2018-06-24T11:13:47.271Z,22.17
2018-06-24T11:16:14.632Z,22.43
2018-06-24T11:18:42.093Z,23.02
2018-06-24T11:21:09.442Z,23.34
2018-06-24T11:23:36.730Z,22.64
2018-06-24T11:26:04.130Z,22.34
2018-06-24T11:28:31.406Z,22.77
2018-06-24T11:30:58.761Z,22.96
2018-06-24T11:33:26.006Z,22.77
2018-06-24T11:35:53.362Z,22.70
2018-06-24T11:38:20.716Z,22.64
2018-06-24T11:40:58.903Z,22.83
2018-06-24T11:43:26.260Z,22.59
2018-06-24T11:45:53.720Z,22.56
2018-06-24T11:48:21.050Z,22.98
2018-06-24T11:50:48.272Z,23.30
2018-06-24T11:53:15.541Z,23.13
2018-06-24T11:55:42.855Z,23.10
2018-06-24T11:58:10.167Z,23.34
2018-06-24T12:00:37.534Z,23.19
2018-06-24T12:03:05.082Z,23.51
2018-06-24T12:05:32.382Z,23.37
2018-06-24T12:07:59.700Z,23.52
2018-06-24T12:10:26.995Z,23.91
2018-06-24T12:12:54.361Z,24.34
2018-06-24T12:15:22.118Z,24.80
2018-06-24T12:17:59.306Z,25.62
2018-06-24T12:20:27.149Z,26.01
2018-06-24T12:22:54.431Z,25.96
2018-06-24T12:25:21.804Z,25.97
2018-06-24T12:27:49.145Z,26.25
2018-06-24T12:30:16.588Z,26.40
2018-06-24T12:32:43.964Z,26.51
2018-06-24T12:35:11.711Z,26.60
2018-06-24T12:37:39.141Z,26.47
2018-06-24T12:40:06.691Z,26.32
2018-06-24T12:42:34.062Z,26.74
2018-06-24T12:45:01.512Z,26.95
2018-06-24T12:47:28.988Z,27.76
2018-06-24T12:49:56.357Z,27.20
2018-06-24T12:52:23.748Z,26.32
2018-06-24T12:54:51.043Z,26.28
2018-06-24T12:57:18.466Z,25.85
2018-06-24T12:59:46.005Z,25.89
2018-06-24T13:02:13.171Z,25.61
2018-06-24T13:04:40.596Z,25.51
2018-06-24T13:07:07.886Z,25.59
2018-06-24T13:09:35.256Z,26.16
2018-06-24T13:12:02.595Z,26.18
2018-06-24T13:14:29.958Z,25.45
2018-06-24T13:16:57.266Z,25.52
2018-06-24T13:19:24.590Z,25.66
2018-06-24T13:21:52.019Z,25.58
2018-06-24T13:24:19.688Z,25.29
2018-06-24T13:26:47.197Z,24.84
2018-06-24T13:29:14.461Z,24.64
2018-06-24T13:31:42.047Z,24.78
2018-06-24T13:34:09.412Z,25.06
2018-06-24T13:36:37.206Z,25.20
2018-06-24T13:39:07.013Z,25.27
2018-06-24T13:41:34.357Z,25.36
2018-06-24T13:44:02.403Z,25.83
2018-06-24T13:46:34.121Z,26.21
2018-06-24T13:49:01.872Z,25.85
2018-06-24T13:51:29.228Z,25.47
2018-06-24T13:54:05.655Z,25.43
2018-06-24T13:56:33.495Z,25.51
2018-06-24T13:59:00.845Z,25.81
2018-06-24T14:01:28.185Z,26.01
2018-06-24T14:03:55.658Z,25.59
2018-06-24T14:06:22.975Z,25.50
2018-06-24T14:08:50.231Z,25.69
2018-06-24T14:11:17.496Z,25.39
2018-06-24T14:13:44.865Z,25.15
2018-06-24T14:16:12.265Z,24.90
2018-06-24T14:18:40.094Z,24.95
2018-06-24T14:21:07.487Z,25.53
2018-06-24T15:07:18.092Z,25.98
2018-06-24T15:09:45.382Z,26.05
2018-06-24T15:12:12.795Z,26.05
2018-06-24T15:14:40.357Z,26.32
2018-06-24T15:17:07.670Z,26.23
2018-06-24T15:19:35.083Z,25.84
2018-06-24T15:22:11.806Z,25.91
2018-06-24T15:24:39.689Z,25.76
2018-06-24T15:27:07.159Z,25.55
2018-06-24T15:29:34.572Z,25.34
2018-06-24T15:32:02.478Z,24.90
2018-06-24T15:34:29.959Z,24.72
2018-06-24T15:36:57.270Z,24.57
2018-06-24T15:39:24.676Z,24.14
2018-06-24T15:41:51.966Z,24.17
2018-06-24T15:44:19.354Z,24.07
2018-06-24T15:49:39.440Z,23.93
2018-06-24T15:52:06.792Z,23.86
2018-06-24T15:54:34.209Z,23.85
2018-06-24T15:57:01.978Z,23.83
2018-06-24T15:59:29.283Z,23.76
2018-06-24T16:01:56.616Z,23.57
2018-06-24T16:04:24.717Z,23.55
2018-06-24T16:06:52.060Z,23.44
2018-06-24T16:09:19.468Z,23.57
2018-06-24T16:11:46.776Z,23.45
2018-06-24T16:14:14.140Z,23.58
2018-06-24T16:16:41.484Z,23.68
2018-06-24T16:19:08.800Z,23.34
2018-06-24T16:21:36.216Z,23.27
2018-06-24T16:24:03.824Z,23.38
2018-06-24T16:26:31.123Z,23.52
2018-06-24T16:28:58.487Z,23.77
2018-06-24T16:31:25.921Z,23.90
2018-06-24T16:33:59.762Z,24.04
2018-06-24T16:36:27.141Z,23.77
2018-06-24T16:38:54.540Z,23.68
2018-06-24T16:41:23.604Z,23.79
2018-06-24T16:43:50.990Z,23.80
2018-06-24T16:46:18.442Z,23.93
2018-06-24T16:48:45.798Z,23.80
2018-06-24T16:51:13.149Z,23.62
2018-06-24T16:53:40.593Z,23.52
2018-06-24T16:56:07.957Z,23.57
2018-06-24T16:58:35.278Z,23.53
2018-06-24T17:01:02.712Z,23.56
2018-06-24T17:03:30.104Z,23.23
2018-06-24T17:05:57.625Z,23.31
2018-06-24T17:08:24.948Z,23.13
2018-06-24T17:10:52.247Z,22.92
2018-06-24T17:13:19.606Z,22.83
2018-06-24T17:15:46.985Z,22.69
2018-06-24T17:18:14.350Z,22.71
2018-06-24T17:20:41.655Z,22.57
2018-06-24T17:23:09.008Z,22.30
2018-06-24T17:25:36.482Z,22.17
2018-06-24T17:28:03.818Z,22.04
2018-06-24T17:30:31.331Z,21.92
2018-06-24T17:32:58.657Z,21.87
2018-06-24T17:35:26.119Z,21.88
2018-06-24T17:37:53.464Z,21.89
2018-06-24T17:40:20.897Z,21.88
2018-06-24T17:42:48.322Z,21.82
2018-06-24T17:45:15.782Z,21.87
2018-06-24T17:47:43.144Z,21.85
2018-06-24T17:50:10.545Z,21.35
2018-06-24T17:52:37.981Z,21.76
2018-06-24T17:55:05.332Z,21.60
2018-06-24T17:57:32.749Z,21.50
2018-06-24T18:00:00.168Z,21.41
2018-06-24T18:02:27.657Z,21.43
2018-06-24T18:04:55.126Z,21.31
2018-06-24T18:07:22.420Z,21.19
2018-06-24T18:09:49.834Z,21.10
2018-06-24T18:12:17.192Z,21.09
2018-06-24T18:14:46.379Z,21.11
2018-06-24T18:17:13.981Z,21.03
2018-06-24T18:19:41.375Z,20.89
2018-06-24T18:22:08.690Z,20.90
2018-06-24T18:24:36.459Z,20.76
2018-06-24T18:27:04.543Z,20.64
2018-06-24T18:29:31.848Z,20.65
2018-06-24T18:31:59.256Z,20.42
2018-06-24T18:34:26.638Z,20.39
2018-06-24T18:36:53.937Z,20.42
2018-06-24T18:39:21.273Z,20.40
2018-06-24T18:41:48.643Z,20.34
2018-06-24T18:44:16.116Z,20.30
2018-06-24T18:46:43.515Z,20.25
2018-06-24T18:49:10.886Z,20.31
2018-06-24T18:51:43.186Z,20.31
2018-06-24T18:54:14.154Z,18.02
2018-06-24T18:56:41.583Z,20.11
2018-06-24T18:59:09.549Z,20.22
2018-06-24T19:01:36.977Z,20.03
2018-06-24T19:04:04.450Z,20.05
2018-06-24T19:06:31.901Z,20.11
2018-06-24T19:08:59.259Z,20.16
2018-06-24T19:11:26.717Z,20.03
2018-06-24T19:13:54.056Z,20.06
2018-06-24T19:16:21.509Z,20.10
2018-06-24T19:18:48.929Z,20.23
2018-06-24T19:21:16.355Z,20.25
2018-06-24T19:23:43.730Z,20.15
2018-06-24T19:26:11.176Z,20.03
2018-06-24T19:28:38.621Z,20.02
2018-06-24T19:31:06.032Z,20.01
2018-06-24T19:33:33.452Z,20.11
2018-06-24T19:36:01.231Z,20.15
2018-06-24T19:38:28.693Z,20.13
2018-06-24T19:41:09.004Z,20.04
2018-06-24T19:43:36.296Z,20.05
2018-06-24T19:46:03.685Z,20.02
2018-06-24T19:48:31.034Z,19.96
2018-06-24T19:50:58.467Z,20.01
2018-06-24T19:53:25.791Z,19.91
2018-06-24T19:55:53.144Z,19.78
2018-06-24T19:58:20.673Z,19.77
2018-06-24T20:01:31.381Z,19.73
2018-06-24T20:03:58.706Z,19.65
2018-06-24T20:06:26.027Z,19.63
2018-06-24T20:08:53.250Z,19.57
2018-06-24T20:11:20.555Z,19.61
2018-06-24T20:13:48.018Z,19.61
2018-06-24T20:16:15.398Z,19.58
2018-06-24T20:18:42.825Z,19.48
2018-06-24T20:21:10.177Z,19.53
2018-06-24T20:23:37.477Z,19.34
2018-06-24T20:26:04.908Z,19.27
2018-06-24T20:28:32.296Z,19.25
2018-06-24T20:33:52.066Z,19.31
2018-06-24T20:36:19.492Z,19.07
2018-06-24T20:38:46.858Z,18.92
2018-06-24T20:41:14.271Z,18.93
2018-06-24T20:43:41.923Z,18.98
2018-06-24T20:46:09.296Z,18.91
2018-06-24T20:48:36.730Z,18.73
2018-06-24T20:51:04.029Z,18.55
2018-06-24T20:53:39.004Z,18.63
2018-06-24T20:56:06.393Z,18.60
2018-06-24T20:58:33.727Z,18.65
2018-06-24T21:01:01.079Z,18.52
2018-06-24T21:03:28.459Z,18.50
2018-06-24T21:05:55.814Z,18.48
2018-06-24T21:08:23.117Z,18.36
2018-06-24T21:10:50.406Z,18.48
2018-06-24T21:13:17.812Z,18.39
2018-06-24T21:15:45.198Z,18.39
2018-06-24T21:18:12.653Z,18.44
2018-06-24T21:20:40.040Z,18.50
2018-06-24T21:23:07.572Z,18.49
2018-06-24T21:25:35.274Z,18.55
2018-06-24T21:28:02.711Z,18.39
2018-06-24T21:30:30.070Z,18.31
2018-06-24T21:32:57.428Z,18.29
2018-06-24T21:35:24.837Z,18.24
2018-06-24T21:37:52.220Z,18.33
2018-06-24T21:40:19.718Z,18.30
2018-06-24T21:42:47.244Z,18.25
2018-06-24T21:45:14.652Z,18.01
2018-06-24T21:47:42.133Z,17.85
2018-06-24T21:50:09.459Z,17.88
2018-06-24T21:52:36.865Z,17.57
2018-06-24T21:55:04.337Z,17.86
2018-06-24T21:57:31.727Z,17.86
2018-06-24T21:59:59.143Z,17.93
2018-06-24T22:02:26.577Z,17.90
2018-06-24T22:04:53.961Z,17.95
2018-06-24T22:07:21.414Z,17.97
2018-06-24T22:09:48.852Z,18.03
2018-06-24T22:12:16.212Z,18.13
2018-06-24T22:14:45.149Z,17.98
2018-06-24T22:17:18.213Z,18.07
2018-06-24T22:19:45.556Z,18.08
2018-06-24T22:22:12.928Z,18.01
2018-06-24T22:24:40.300Z,18.09
2018-06-24T22:27:07.710Z,17.97
2018-06-24T22:29:35.122Z,17.99
2018-06-24T22:32:02.468Z,17.89
2018-06-24T22:34:29.794Z,17.86
2018-06-24T22:36:57.284Z,17.91
2018-06-24T22:39:28.453Z,17.92
2018-06-24T22:41:55.822Z,18.02
2018-06-24T22:44:23.345Z,17.96
2018-06-24T22:46:50.773Z,18.00
2018-06-24T22:49:18.056Z,17.94
2018-06-24T22:51:45.412Z,17.75
2018-06-24T22:54:12.814Z,17.78
2018-06-24T22:56:40.095Z,17.76
2018-06-24T22:59:51.138Z,17.65
2018-06-24T23:02:18.472Z,17.47
2018-06-24T23:04:45.823Z,17.42
2018-06-24T23:07:13.184Z,17.59
2018-06-24T23:09:40.572Z,17.66
2018-06-24T23:12:07.882Z,17.76
2018-06-24T23:14:35.237Z,17.73
2018-06-24T23:17:02.698Z,17.63
2018-06-24T23:19:30.087Z,17.56
2018-06-24T23:21:57.394Z,17.43
2018-06-24T23:24:24.814Z,17.48
2018-06-24T23:26:52.090Z,17.60
2018-06-24T23:29:19.501Z,17.62
2018-06-24T23:31:46.819Z,17.41
2018-06-24T23:34:14.244Z,17.28
2018-06-24T23:36:41.604Z,17.14
2018-06-24T23:39:09.642Z,17.18
2018-06-24T23:41:36.937Z,17.09
2018-06-24T23:44:04.412Z,17.00
2018-06-24T23:46:31.743Z,16.77
2018-06-24T23:48:59.120Z,16.87
2018-06-24T23:51:26.483Z,16.71
2018-06-24T23:53:53.858Z,16.78
2018-06-24T23:56:21.723Z,16.81
2018-06-24T23:58:49.037Z,16.78
